sensor_id;sensor_type;location;lat;lon;timestamp;P1;durP1;ratioP1;P2;durP2;ratioP2
77302;SDS011;66363;49.828;7.856;2023-01-28T00:00:27;2.20;;;1.50;;
77302;SDS011;66363;49.828;7.856;2023-01-28T00:02:53;2.65;;;1.67;;
77302;SDS011;66363;49.828;7.856;2023-01-28T00:05:19;2.10;;;1.50;;
77302;SDS011;66363;49.828;7.856;2023-01-28T00:07:47;2.33;;;1.50;;
77302;SDS011;66363;49.828;7.856;2023-01-28T00:10:13;2.90;;;1.50;;
77302;SDS011;66363;49.828;7.856;2023-01-28T00:12:41;2.60;;;1.42;;
77302;SDS011;66363;49.828;7.856;2023-01-28T00:15:07;2.90;;;1.70;;
77302;SDS011;66363;49.828;7.856;2023-01-28T00:17:33;2.92;;;1.63;;
77302;SDS011;66363;49.828;7.856;2023-01-28T00:19:59;2.72;;;1.30;;
77302;SDS011;66363;49.828;7.856;2023-01-28T00:22:24;2.45;;;1.60;;
77302;SDS011;66363;49.828;7.856;2023-01-28T00:24:50;2.42;;;1.50;;
77302;SDS011;66363;49.828;7.856;2023-01-28T00:27:16;2.53;;;1.50;;
77302;SDS011;66363;49.828;7.856;2023-01-28T00:29:43;2.28;;;1.60;;
77302;SDS011;66363;49.828;7.856;2023-01-28T00:32:08;2.05;;;1.58;;
77302;SDS011;66363;49.828;7.856;2023-01-28T00:34:34;2.45;;;1.50;;
77302;SDS011;66363;49.828;7.856;2023-01-28T00:37:00;1.98;;;1.38;;
77302;SDS011;66363;49.828;7.856;2023-01-28T00:39:25;2.95;;;1.90;;
77302;SDS011;66363;49.828;7.856;2023-01-28T00:41:51;3.47;;;1.40;;
77302;SDS011;66363;49.828;7.856;2023-01-28T00:44:17;1.42;;;1.17;;
77302;SDS011;66363;49.828;7.856;2023-01-28T00:46:45;2.88;;;1.50;;
77302;SDS011;66363;49.828;7.856;2023-01-28T00:49:11;2.00;;;1.25;;
77302;SDS011;66363;49.828;7.856;2023-01-28T00:51:36;2.30;;;1.40;;
77302;SDS011;66363;49.828;7.856;2023-01-28T00:54:02;1.58;;;1.27;;
77302;SDS011;66363;49.828;7.856;2023-01-28T00:56:28;2.33;;;1.38;;
77302;SDS011;66363;49.828;7.856;2023-01-28T00:58:54;2.03;;;1.48;;
77302;SDS011;66363;49.828;7.856;2023-01-28T01:01:20;2.10;;;1.35;;
77302;SDS011;66363;49.828;7.856;2023-01-28T01:03:49;2.20;;;1.50;;
77302;SDS011;66363;49.828;7.856;2023-01-28T01:06:15;2.20;;;1.67;;
77302;SDS011;66363;49.828;7.856;2023-01-28T01:08:41;3.38;;;1.67;;
77302;SDS011;66363;49.828;7.856;2023-01-28T01:11:07;2.60;;;1.77;;
77302;SDS011;66363;49.828;7.856;2023-01-28T01:13:34;2.97;;;1.70;;
77302;SDS011;66363;49.828;7.856;2023-01-28T01:16:01;2.60;;;1.52;;
77302;SDS011;66363;49.828;7.856;2023-01-28T01:18:27;2.55;;;1.73;;
77302;SDS011;66363;49.828;7.856;2023-01-28T01:20:55;2.25;;;1.42;;
77302;SDS011;66363;49.828;7.856;2023-01-28T01:23:20;2.30;;;1.48;;
77302;SDS011;66363;49.828;7.856;2023-01-28T01:25:46;2.97;;;1.55;;
77302;SDS011;66363;49.828;7.856;2023-01-28T01:28:12;2.78;;;1.60;;
77302;SDS011;66363;49.828;7.856;2023-01-28T01:30:37;1.95;;;1.40;;
77302;SDS011;66363;49.828;7.856;2023-01-28T01:33:03;2.03;;;1.33;;
77302;SDS011;66363;49.828;7.856;2023-01-28T01:35:29;3.47;;;1.60;;
77302;SDS011;66363;49.828;7.856;2023-01-28T01:37:56;2.80;;;1.80;;
77302;SDS011;66363;49.828;7.856;2023-01-28T01:40:22;2.60;;;1.42;;
77302;SDS011;66363;49.828;7.856;2023-01-28T01:42:48;3.00;;;1.40;;
77302;SDS011;66363;49.828;7.856;2023-01-28T01:45:13;1.83;;;1.42;;
77302;SDS011;66363;49.828;7.856;2023-01-28T01:47:41;2.97;;;1.60;;
77302;SDS011;66363;49.828;7.856;2023-01-28T01:50:14;2.15;;;1.52;;
77302;SDS011;66363;49.828;7.856;2023-01-28T01:52:44;2.60;;;1.60;;
77302;SDS011;66363;49.828;7.856;2023-01-28T01:55:16;2.70;;;1.42;;
77302;SDS011;66363;49.828;7.856;2023-01-28T01:57:45;3.30;;;1.30;;
77302;SDS011;66363;49.828;7.856;2023-01-28T02:00:15;1.73;;;1.27;;
77302;SDS011;66363;49.828;7.856;2023-01-28T02:02:42;2.72;;;1.35;;
77302;SDS011;66363;49.828;7.856;2023-01-28T02:05:10;1.95;;;1.50;;
77302;SDS011;66363;49.828;7.856;2023-01-28T02:07:38;2.53;;;1.50;;
77302;SDS011;66363;49.828;7.856;2023-01-28T02:10:05;1.85;;;1.30;;
77302;SDS011;66363;49.828;7.856;2023-01-28T02:12:35;3.03;;;1.70;;
77302;SDS011;66363;49.828;7.856;2023-01-28T02:15:05;2.22;;;1.60;;
77302;SDS011;66363;49.828;7.856;2023-01-28T02:17:34;2.78;;;1.63;;
77302;SDS011;66363;49.828;7.856;2023-01-28T02:20:01;2.05;;;1.42;;
77302;SDS011;66363;49.828;7.856;2023-01-28T02:28:52;4.22;;;2.00;;
77302;SDS011;66363;49.828;7.856;2023-01-28T02:31:25;2.83;;;1.80;;
77302;SDS011;66363;49.828;7.856;2023-01-28T02:33:57;2.25;;;1.30;;
77302;SDS011;66363;49.828;7.856;2023-01-28T02:36:29;2.90;;;1.50;;
77302;SDS011;66363;49.828;7.856;2023-01-28T02:39:00;4.85;;;1.70;;
77302;SDS011;66363;49.828;7.856;2023-01-28T02:41:33;2.45;;;1.40;;
77302;SDS011;66363;49.828;7.856;2023-01-28T02:44:04;3.35;;;1.60;;
77302;SDS011;66363;49.828;7.856;2023-01-28T02:46:34;3.25;;;1.50;;
77302;SDS011;66363;49.828;7.856;2023-01-28T02:49:02;2.33;;;1.70;;
77302;SDS011;66363;49.828;7.856;2023-01-28T02:51:38;2.15;;;1.50;;
77302;SDS011;66363;49.828;7.856;2023-01-28T02:54:18;1.80;;;1.40;;
77302;SDS011;66363;49.828;7.856;2023-01-28T02:56:57;2.05;;;1.17;;
77302;SDS011;66363;49.828;7.856;2023-01-28T02:59:33;2.13;;;1.27;;
77302;SDS011;66363;49.828;7.856;2023-01-28T03:02:08;2.72;;;1.60;;
77302;SDS011;66363;49.828;7.856;2023-01-28T03:04:42;2.50;;;1.60;;
77302;SDS011;66363;49.828;7.856;2023-01-28T03:07:11;3.10;;;1.42;;
77302;SDS011;66363;49.828;7.856;2023-01-28T03:09:41;2.50;;;1.50;;
77302;SDS011;66363;49.828;7.856;2023-01-28T03:12:10;2.88;;;1.70;;
77302;SDS011;66363;49.828;7.856;2023-01-28T03:14:42;2.33;;;1.40;;
77302;SDS011;66363;49.828;7.856;2023-01-28T03:17:13;1.92;;;1.40;;
77302;SDS011;66363;49.828;7.856;2023-01-28T03:19:42;2.08;;;1.52;;
77302;SDS011;66363;49.828;7.856;2023-01-28T03:22:08;3.17;;;1.63;;
77302;SDS011;66363;49.828;7.856;2023-01-28T03:24:34;2.10;;;1.55;;
77302;SDS011;66363;49.828;7.856;2023-01-28T03:27:07;2.45;;;1.50;;
77302;SDS011;66363;49.828;7.856;2023-01-28T03:29:38;1.88;;;1.38;;
77302;SDS011;66363;49.828;7.856;2023-01-28T03:32:07;2.90;;;1.40;;
77302;SDS011;66363;49.828;7.856;2023-01-28T03:34:35;2.65;;;1.55;;
77302;SDS011;66363;49.828;7.856;2023-01-28T03:37:01;2.20;;;1.35;;
77302;SDS011;66363;49.828;7.856;2023-01-28T03:39:28;1.77;;;1.33;;
77302;SDS011;66363;49.828;7.856;2023-01-28T03:41:56;2.10;;;1.40;;
77302;SDS011;66363;49.828;7.856;2023-01-28T03:44:24;2.47;;;1.45;;
77302;SDS011;66363;49.828;7.856;2023-01-28T03:46:51;2.70;;;1.45;;
77302;SDS011;66363;49.828;7.856;2023-01-28T03:49:18;1.92;;;1.38;;
77302;SDS011;66363;49.828;7.856;2023-01-28T03:51:44;2.75;;;1.55;;
77302;SDS011;66363;49.828;7.856;2023-01-28T03:54:10;1.70;;;1.30;;
77302;SDS011;66363;49.828;7.856;2023-01-28T03:56:36;5.50;;;1.50;;
77302;SDS011;66363;49.828;7.856;2023-01-28T03:59:01;3.15;;;1.67;;
77302;SDS011;66363;49.828;7.856;2023-01-28T04:01:27;2.33;;;1.40;;
77302;SDS011;66363;49.828;7.856;2023-01-28T04:03:53;2.15;;;1.10;;
77302;SDS011;66363;49.828;7.856;2023-01-28T04:06:20;2.25;;;1.05;;
77302;SDS011;66363;49.828;7.856;2023-01-28T04:08:46;2.95;;;1.70;;
77302;SDS011;66363;49.828;7.856;2023-01-28T04:11:12;1.83;;;1.20;;
77302;SDS011;66363;49.828;7.856;2023-01-28T04:13:37;1.83;;;1.33;;
77302;SDS011;66363;49.828;7.856;2023-01-28T04:16:03;1.73;;;1.25;;
77302;SDS011;66363;49.828;7.856;2023-01-28T04:18:29;1.92;;;1.33;;
77302;SDS011;66363;49.828;7.856;2023-01-28T04:20:54;2.53;;;1.40;;
77302;SDS011;66363;49.828;7.856;2023-01-28T04:23:22;1.48;;;0.95;;
77302;SDS011;66363;49.828;7.856;2023-01-28T04:25:49;2.45;;;1.20;;
77302;SDS011;66363;49.828;7.856;2023-01-28T04:28:15;2.00;;;1.30;;
77302;SDS011;66363;49.828;7.856;2023-01-28T04:30:40;1.63;;;1.20;;
77302;SDS011;66363;49.828;7.856;2023-01-28T04:33:06;2.47;;;1.38;;
77302;SDS011;66363;49.828;7.856;2023-01-28T04:35:32;3.63;;;1.15;;
77302;SDS011;66363;49.828;7.856;2023-01-28T04:37:57;2.75;;;1.40;;
77302;SDS011;66363;49.828;7.856;2023-01-28T04:40:28;2.53;;;1.08;;
77302;SDS011;66363;49.828;7.856;2023-01-28T04:42:54;1.95;;;1.25;;
77302;SDS011;66363;49.828;7.856;2023-01-28T04:47:45;1.35;;;0.85;;
77302;SDS011;66363;49.828;7.856;2023-01-28T04:50:11;1.83;;;1.05;;
77302;SDS011;66363;49.828;7.856;2023-01-28T04:52:37;1.70;;;0.90;;
77302;SDS011;66363;49.828;7.856;2023-01-28T04:55:03;1.50;;;1.10;;
77302;SDS011;66363;49.828;7.856;2023-01-28T04:57:30;2.00;;;1.15;;
77302;SDS011;66363;49.828;7.856;2023-01-28T04:59:56;1.60;;;0.93;;
77302;SDS011;66363;49.828;7.856;2023-01-28T05:02:22;1.05;;;0.80;;
77302;SDS011;66363;49.828;7.856;2023-01-28T05:04:48;2.08;;;1.02;;
77302;SDS011;66363;49.828;7.856;2023-01-28T05:07:13;1.70;;;1.02;;
77302;SDS011;66363;49.828;7.856;2023-01-28T05:09:39;1.05;;;0.73;;
77302;SDS011;66363;49.828;7.856;2023-01-28T05:12:05;1.88;;;0.93;;
77302;SDS011;66363;49.828;7.856;2023-01-28T05:14:32;1.63;;;0.70;;
77302;SDS011;66363;49.828;7.856;2023-01-28T05:16:58;2.10;;;0.90;;
77302;SDS011;66363;49.828;7.856;2023-01-28T05:19:24;1.15;;;0.90;;
77302;SDS011;66363;49.828;7.856;2023-01-28T05:21:49;2.20;;;0.90;;
77302;SDS011;66363;49.828;7.856;2023-01-28T05:24:15;1.55;;;0.90;;
77302;SDS011;66363;49.828;7.856;2023-01-28T05:26:41;0.93;;;0.82;;
77302;SDS011;66363;49.828;7.856;2023-01-28T05:29:06;3.20;;;0.95;;
77302;SDS011;66363;49.828;7.856;2023-01-28T05:31:34;1.80;;;1.08;;
77302;SDS011;66363;49.828;7.856;2023-01-28T05:34:00;1.35;;;0.90;;
77302;SDS011;66363;49.828;7.856;2023-01-28T05:36:25;1.40;;;1.02;;
77302;SDS011;66363;49.828;7.856;2023-01-28T05:38:51;1.83;;;1.13;;
77302;SDS011;66363;49.828;7.856;2023-01-28T05:41:17;2.15;;;1.13;;
77302;SDS011;66363;49.828;7.856;2023-01-28T05:43:42;1.20;;;0.80;;
77302;SDS011;66363;49.828;7.856;2023-01-28T05:46:08;2.10;;;1.13;;
77302;SDS011;66363;49.828;7.856;2023-01-28T05:48:35;2.25;;;1.27;;
77302;SDS011;66363;49.828;7.856;2023-01-28T05:51:01;2.45;;;1.10;;
77302;SDS011;66363;49.828;7.856;2023-01-28T05:53:27;1.58;;;0.98;;
77302;SDS011;66363;49.828;7.856;2023-01-28T05:55:52;1.35;;;0.90;;
77302;SDS011;66363;49.828;7.856;2023-01-28T05:58:18;1.02;;;0.90;;
77302;SDS011;66363;49.828;7.856;2023-01-28T06:00:44;1.40;;;1.08;;
77302;SDS011;66363;49.828;7.856;2023-01-28T06:03:10;1.00;;;0.90;;
77302;SDS011;66363;49.828;7.856;2023-01-28T06:05:38;2.78;;;1.20;;
77302;SDS011;66363;49.828;7.856;2023-01-28T06:08:04;0.70;;;0.68;;
77302;SDS011;66363;49.828;7.856;2023-01-28T06:10:29;2.10;;;1.13;;
77302;SDS011;66363;49.828;7.856;2023-01-28T06:12:55;1.48;;;0.85;;
77302;SDS011;66363;49.828;7.856;2023-01-28T06:15:21;1.70;;;1.15;;
77302;SDS011;66363;49.828;7.856;2023-01-28T06:17:47;3.20;;;1.10;;
77302;SDS011;66363;49.828;7.856;2023-01-28T06:20:12;2.35;;;1.60;;
77302;SDS011;66363;49.828;7.856;2023-01-28T06:22:40;1.25;;;1.08;;
77302;SDS011;66363;49.828;7.856;2023-01-28T06:25:06;2.20;;;1.02;;
77302;SDS011;66363;49.828;7.856;2023-01-28T06:27:32;1.48;;;1.02;;
77302;SDS011;66363;49.828;7.856;2023-01-28T06:29:58;1.98;;;1.08;;
77302;SDS011;66363;49.828;7.856;2023-01-28T06:32:23;2.78;;;1.30;;
77302;SDS011;66363;49.828;7.856;2023-01-28T06:34:49;1.95;;;1.00;;
77302;SDS011;66363;49.828;7.856;2023-01-28T06:37:15;2.22;;;1.30;;
77302;SDS011;66363;49.828;7.856;2023-01-28T06:39:42;2.05;;;1.30;;
77302;SDS011;66363;49.828;7.856;2023-01-28T06:42:08;1.67;;;1.33;;
77302;SDS011;66363;49.828;7.856;2023-01-28T06:44:33;2.00;;;1.20;;
77302;SDS011;66363;49.828;7.856;2023-01-28T06:46:59;1.67;;;1.15;;
77302;SDS011;66363;49.828;7.856;2023-01-28T06:49:25;1.75;;;1.20;;
77302;SDS011;66363;49.828;7.856;2023-01-28T06:51:50;2.50;;;1.33;;
77302;SDS011;66363;49.828;7.856;2023-01-28T06:54:16;3.72;;;1.20;;
77302;SDS011;66363;49.828;7.856;2023-01-28T06:56:43;2.33;;;1.40;;
77302;SDS011;66363;49.828;7.856;2023-01-28T06:59:09;1.92;;;1.20;;
77302;SDS011;66363;49.828;7.856;2023-01-28T07:01:34;1.70;;;1.20;;
77302;SDS011;66363;49.828;7.856;2023-01-28T07:04:00;2.83;;;1.45;;
77302;SDS011;66363;49.828;7.856;2023-01-28T07:06:26;2.88;;;1.60;;
77302;SDS011;66363;49.828;7.856;2023-01-28T07:08:51;2.25;;;1.25;;
77302;SDS011;66363;49.828;7.856;2023-01-28T07:11:17;2.50;;;1.30;;
77302;SDS011;66363;49.828;7.856;2023-01-28T07:13:44;2.42;;;1.30;;
77302;SDS011;66363;49.828;7.856;2023-01-28T07:16:10;1.50;;;1.10;;
77302;SDS011;66363;49.828;7.856;2023-01-28T07:18:36;1.70;;;1.13;;
77302;SDS011;66363;49.828;7.856;2023-01-28T07:21:01;1.60;;;1.15;;
77302;SDS011;66363;49.828;7.856;2023-01-28T07:23:27;3.10;;;1.63;;
77302;SDS011;66363;49.828;7.856;2023-01-28T07:25:53;1.67;;;1.10;;
77302;SDS011;66363;49.828;7.856;2023-01-28T07:28:18;2.63;;;1.20;;
77302;SDS011;66363;49.828;7.856;2023-01-28T07:30:45;2.60;;;1.20;;
77302;SDS011;66363;49.828;7.856;2023-01-28T07:33:12;1.80;;;1.02;;
77302;SDS011;66363;49.828;7.856;2023-01-28T07:35:37;1.45;;;1.10;;
77302;SDS011;66363;49.828;7.856;2023-01-28T07:38:03;1.48;;;1.10;;
77302;SDS011;66363;49.828;7.856;2023-01-28T07:40:30;4.13;;;1.25;;
77302;SDS011;66363;49.828;7.856;2023-01-28T07:42:56;2.78;;;1.35;;
77302;SDS011;66363;49.828;7.856;2023-01-28T07:45:22;2.33;;;1.23;;
77302;SDS011;66363;49.828;7.856;2023-01-28T07:47:54;1.58;;;1.17;;
77302;SDS011;66363;49.828;7.856;2023-01-28T07:50:21;1.40;;;1.15;;
77302;SDS011;66363;49.828;7.856;2023-01-28T07:52:46;1.95;;;1.10;;
77302;SDS011;66363;49.828;7.856;2023-01-28T07:55:12;1.52;;;1.02;;
77302;SDS011;66363;49.828;7.856;2023-01-28T07:57:46;2.17;;;1.35;;
77302;SDS011;66363;49.828;7.856;2023-01-28T08:00:13;2.13;;;1.27;;
77302;SDS011;66363;49.828;7.856;2023-01-28T08:05:06;2.50;;;1.13;;
77302;SDS011;66363;49.828;7.856;2023-01-28T08:07:33;1.75;;;1.13;;
77302;SDS011;66363;49.828;7.856;2023-01-28T08:09:58;2.03;;;1.33;;
77302;SDS011;66363;49.828;7.856;2023-01-28T08:12:24;1.88;;;1.33;;
77302;SDS011;66363;49.828;7.856;2023-01-28T08:14:50;3.15;;;1.40;;
77302;SDS011;66363;49.828;7.856;2023-01-28T08:17:15;1.80;;;1.20;;
77302;SDS011;66363;49.828;7.856;2023-01-28T08:19:41;2.08;;;1.42;;
77302;SDS011;66363;49.828;7.856;2023-01-28T08:22:08;2.05;;;1.20;;
77302;SDS011;66363;49.828;7.856;2023-01-28T08:24:46;2.83;;;1.35;;
77302;SDS011;66363;49.828;7.856;2023-01-28T08:27:11;2.20;;;1.45;;
77302;SDS011;66363;49.828;7.856;2023-01-28T08:29:37;3.10;;;1.50;;
77302;SDS011;66363;49.828;7.856;2023-01-28T08:32:03;2.05;;;1.20;;
77302;SDS011;66363;49.828;7.856;2023-01-28T08:34:29;3.15;;;1.27;;
77302;SDS011;66363;49.828;7.856;2023-01-28T08:36:54;3.40;;;1.45;;
77302;SDS011;66363;49.828;7.856;2023-01-28T08:39:21;2.33;;;1.70;;
77302;SDS011;66363;49.828;7.856;2023-01-28T08:41:47;2.97;;;1.60;;
77302;SDS011;66363;49.828;7.856;2023-01-28T08:44:13;3.63;;;1.50;;
77302;SDS011;66363;49.828;7.856;2023-01-28T08:46:38;2.65;;;1.40;;
77302;SDS011;66363;49.828;7.856;2023-01-28T08:49:04;2.42;;;1.60;;
77302;SDS011;66363;49.828;7.856;2023-01-28T08:51:30;2.17;;;1.50;;
77302;SDS011;66363;49.828;7.856;2023-01-28T08:53:55;2.65;;;1.90;;
77302;SDS011;66363;49.828;7.856;2023-01-28T08:56:23;2.08;;;1.60;;
77302;SDS011;66363;49.828;7.856;2023-01-28T08:58:48;2.85;;;1.58;;
77302;SDS011;66363;49.828;7.856;2023-01-28T09:01:14;2.05;;;1.52;;
77302;SDS011;66363;49.828;7.856;2023-01-28T09:03:39;2.03;;;1.45;;
77302;SDS011;66363;49.828;7.856;2023-01-28T09:06:05;2.92;;;1.50;;
77302;SDS011;66363;49.828;7.856;2023-01-28T09:08:31;2.55;;;1.30;;
77302;SDS011;66363;49.828;7.856;2023-01-28T09:10:57;3.25;;;1.38;;
77302;SDS011;66363;49.828;7.856;2023-01-28T09:13:25;2.55;;;1.48;;
77302;SDS011;66363;49.828;7.856;2023-01-28T09:15:50;1.73;;;1.10;;
77302;SDS011;66363;49.828;7.856;2023-01-28T09:18:17;2.10;;;1.40;;
77302;SDS011;66363;49.828;7.856;2023-01-28T09:20:43;1.38;;;1.00;;
77302;SDS011;66363;49.828;7.856;2023-01-28T09:23:09;2.38;;;1.23;;
77302;SDS011;66363;49.828;7.856;2023-01-28T09:25:35;1.98;;;1.20;;
77302;SDS011;66363;49.828;7.856;2023-01-28T09:28:01;1.98;;;1.38;;
77302;SDS011;66363;49.828;7.856;2023-01-28T09:30:29;1.60;;;1.23;;
77302;SDS011;66363;49.828;7.856;2023-01-28T09:32:55;1.42;;;1.00;;
77302;SDS011;66363;49.828;7.856;2023-01-28T09:37:47;1.95;;;1.00;;
77302;SDS011;66363;49.828;7.856;2023-01-28T09:40:14;1.40;;;1.10;;
77302;SDS011;66363;49.828;7.856;2023-01-28T09:42:46;3.25;;;1.42;;
77302;SDS011;66363;49.828;7.856;2023-01-28T09:45:22;2.90;;;1.40;;
77302;SDS011;66363;49.828;7.856;2023-01-28T09:47:56;2.00;;;1.33;;
77302;SDS011;66363;49.828;7.856;2023-01-28T09:50:25;2.22;;;1.42;;
77302;SDS011;66363;49.828;7.856;2023-01-28T09:52:56;3.25;;;1.98;;
77302;SDS011;66363;49.828;7.856;2023-01-28T09:55:30;2.88;;;1.40;;
77302;SDS011;66363;49.828;7.856;2023-01-28T09:57:58;4.05;;;1.20;;
77302;SDS011;66363;49.828;7.856;2023-01-28T10:00:25;2.08;;;1.30;;
77302;SDS011;66363;49.828;7.856;2023-01-28T10:03:06;1.15;;;0.85;;
77302;SDS011;66363;49.828;7.856;2023-01-28T10:05:46;1.58;;;1.10;;
77302;SDS011;66363;49.828;7.856;2023-01-28T10:08:26;1.33;;;1.13;;
77302;SDS011;66363;49.828;7.856;2023-01-28T10:11:06;1.73;;;1.10;;
77302;SDS011;66363;49.828;7.856;2023-01-28T10:13:42;2.58;;;1.17;;
77302;SDS011;66363;49.828;7.856;2023-01-28T10:16:18;1.17;;;0.95;;
77302;SDS011;66363;49.828;7.856;2023-01-28T10:18:55;1.30;;;0.88;;
77302;SDS011;66363;49.828;7.856;2023-01-28T10:21:26;2.17;;;0.95;;
77302;SDS011;66363;49.828;7.856;2023-01-28T10:23:59;5.13;;;1.30;;
77302;SDS011;66363;49.828;7.856;2023-01-28T10:26:30;1.75;;;1.13;;
77302;SDS011;66363;49.828;7.856;2023-01-28T10:29:03;1.88;;;1.00;;
77302;SDS011;66363;49.828;7.856;2023-01-28T10:31:38;1.13;;;0.75;;
77302;SDS011;66363;49.828;7.856;2023-01-28T10:34:09;2.40;;;1.05;;
77302;SDS011;66363;49.828;7.856;2023-01-28T10:36:35;1.55;;;1.25;;
77302;SDS011;66363;49.828;7.856;2023-01-28T10:39:01;2.15;;;1.10;;
77302;SDS011;66363;49.828;7.856;2023-01-28T10:41:27;1.13;;;0.90;;
77302;SDS011;66363;49.828;7.856;2023-01-28T10:43:52;1.60;;;1.10;;
77302;SDS011;66363;49.828;7.856;2023-01-28T10:46:19;1.67;;;1.05;;
77302;SDS011;66363;49.828;7.856;2023-01-28T10:48:53;1.70;;;1.20;;
77302;SDS011;66363;49.828;7.856;2023-01-28T10:51:34;1.67;;;1.00;;
77302;SDS011;66363;49.828;7.856;2023-01-28T10:54:01;1.70;;;1.17;;
77302;SDS011;66363;49.828;7.856;2023-01-28T10:56:28;1.33;;;0.95;;
77302;SDS011;66363;49.828;7.856;2023-01-28T10:58:57;1.85;;;0.95;;
77302;SDS011;66363;49.828;7.856;2023-01-28T11:01:36;1.88;;;1.20;;
77302;SDS011;66363;49.828;7.856;2023-01-28T11:04:12;2.65;;;1.30;;
77302;SDS011;66363;49.828;7.856;2023-01-28T11:06:50;1.55;;;1.05;;
77302;SDS011;66363;49.828;7.856;2023-01-28T11:09:20;1.40;;;0.90;;
77302;SDS011;66363;49.828;7.856;2023-01-28T11:11:48;1.92;;;1.05;;
77302;SDS011;66363;49.828;7.856;2023-01-28T11:14:18;2.10;;;1.25;;
77302;SDS011;66363;49.828;7.856;2023-01-28T11:16:45;2.13;;;1.00;;
77302;SDS011;66363;49.828;7.856;2023-01-28T11:19:11;1.88;;;1.20;;
77302;SDS011;66363;49.828;7.856;2023-01-28T11:21:37;1.52;;;1.00;;
77302;SDS011;66363;49.828;7.856;2023-01-28T11:24:05;1.58;;;1.10;;
77302;SDS011;66363;49.828;7.856;2023-01-28T11:26:38;1.70;;;1.17;;
77302;SDS011;66363;49.828;7.856;2023-01-28T11:29:17;1.48;;;0.95;;
77302;SDS011;66363;49.828;7.856;2023-01-28T11:31:48;1.48;;;1.10;;
77302;SDS011;66363;49.828;7.856;2023-01-28T11:34:14;1.35;;;1.05;;
77302;SDS011;66363;49.828;7.856;2023-01-28T11:36:48;3.70;;;1.20;;
77302;SDS011;66363;49.828;7.856;2023-01-28T11:39:18;1.75;;;1.17;;
77302;SDS011;66363;49.828;7.856;2023-01-28T11:41:46;1.58;;;1.20;;
77302;SDS011;66363;49.828;7.856;2023-01-28T11:44:13;1.00;;;0.80;;
77302;SDS011;66363;49.828;7.856;2023-01-28T11:46:49;1.48;;;0.90;;
77302;SDS011;66363;49.828;7.856;2023-01-28T11:49:27;1.58;;;0.93;;
77302;SDS011;66363;49.828;7.856;2023-01-28T11:52:04;2.20;;;1.40;;
77302;SDS011;66363;49.828;7.856;2023-01-28T11:54:45;2.03;;;1.10;;
77302;SDS011;66363;49.828;7.856;2023-01-28T11:57:22;1.50;;;1.10;;
77302;SDS011;66363;49.828;7.856;2023-01-28T11:59:53;1.65;;;1.08;;
77302;SDS011;66363;49.828;7.856;2023-01-28T12:02:31;1.00;;;0.75;;
77302;SDS011;66363;49.828;7.856;2023-01-28T12:05:19;1.40;;;1.00;;
77302;SDS011;66363;49.828;7.856;2023-01-28T12:08:00;2.05;;;1.20;;
77302;SDS011;66363;49.828;7.856;2023-01-28T12:10:36;2.13;;;1.60;;
77302;SDS011;66363;49.828;7.856;2023-01-28T12:13:16;3.25;;;1.20;;
77302;SDS011;66363;49.828;7.856;2023-01-28T12:22:11;1.13;;;0.98;;
77302;SDS011;66363;49.828;7.856;2023-01-28T12:24:49;2.28;;;1.23;;
77302;SDS011;66363;49.828;7.856;2023-01-28T12:27:32;2.58;;;0.80;;
77302;SDS011;66363;49.828;7.856;2023-01-28T12:30:12;2.15;;;1.40;;
77302;SDS011;66363;49.828;7.856;2023-01-28T12:33:01;1.77;;;1.00;;
77302;SDS011;66363;49.828;7.856;2023-01-28T12:35:41;1.50;;;0.90;;
77302;SDS011;66363;49.828;7.856;2023-01-28T12:38:20;1.45;;;1.00;;
77302;SDS011;66363;49.828;7.856;2023-01-28T12:40:57;1.50;;;1.10;;
77302;SDS011;66363;49.828;7.856;2023-01-28T12:43:36;1.70;;;0.98;;
77302;SDS011;66363;49.828;7.856;2023-01-28T12:46:09;1.42;;;1.10;;
77302;SDS011;66363;49.828;7.856;2023-01-28T12:48:41;1.48;;;0.88;;
77302;SDS011;66363;49.828;7.856;2023-01-28T12:51:12;3.30;;;1.23;;
77302;SDS011;66363;49.828;7.856;2023-01-28T12:53:41;2.22;;;1.42;;
77302;SDS011;66363;49.828;7.856;2023-01-28T12:56:14;2.30;;;1.55;;
77302;SDS011;66363;49.828;7.856;2023-01-28T12:58:44;1.52;;;1.30;;
77302;SDS011;66363;49.828;7.856;2023-01-28T13:01:15;2.17;;;1.40;;
77302;SDS011;66363;49.828;7.856;2023-01-28T13:03:48;3.80;;;1.35;;
77302;SDS011;66363;49.828;7.856;2023-01-28T13:06:21;1.67;;;1.20;;
77302;SDS011;66363;49.828;7.856;2023-01-28T13:08:51;1.58;;;0.90;;
77302;SDS011;66363;49.828;7.856;2023-01-28T13:11:23;2.05;;;1.23;;
77302;SDS011;66363;49.828;7.856;2023-01-28T13:13:58;1.80;;;1.05;;
77302;SDS011;66363;49.828;7.856;2023-01-28T13:16:24;1.40;;;1.13;;
77302;SDS011;66363;49.828;7.856;2023-01-28T13:18:50;1.90;;;1.27;;
77302;SDS011;66363;49.828;7.856;2023-01-28T13:21:27;1.33;;;1.15;;
77302;SDS011;66363;49.828;7.856;2023-01-28T13:24:02;3.08;;;1.40;;
77302;SDS011;66363;49.828;7.856;2023-01-28T13:26:36;1.75;;;1.02;;
77302;SDS011;66363;49.828;7.856;2023-01-28T13:29:16;2.10;;;1.35;;
77302;SDS011;66363;49.828;7.856;2023-01-28T13:31:53;1.88;;;1.30;;
77302;SDS011;66363;49.828;7.856;2023-01-28T13:34:27;1.45;;;1.20;;
77302;SDS011;66363;49.828;7.856;2023-01-28T13:36:59;2.15;;;1.33;;
77302;SDS011;66363;49.828;7.856;2023-01-28T13:39:29;3.65;;;1.10;;
77302;SDS011;66363;49.828;7.856;2023-01-28T13:42:06;2.13;;;1.15;;
77302;SDS011;66363;49.828;7.856;2023-01-28T13:44:35;1.70;;;1.17;;
77302;SDS011;66363;49.828;7.856;2023-01-28T13:47:11;1.55;;;1.02;;
77302;SDS011;66363;49.828;7.856;2023-01-28T13:52:11;1.48;;;1.05;;
77302;SDS011;66363;49.828;7.856;2023-01-28T13:54:42;4.43;;;1.27;;
77302;SDS011;66363;49.828;7.856;2023-01-28T13:57:22;1.35;;;1.00;;
77302;SDS011;66363;49.828;7.856;2023-01-28T14:00:20;1.80;;;1.20;;
77302;SDS011;66363;49.828;7.856;2023-01-28T14:02:56;1.80;;;1.15;;
77302;SDS011;66363;49.828;7.856;2023-01-28T14:05:52;2.67;;;1.27;;
77302;SDS011;66363;49.828;7.856;2023-01-28T14:14:38;2.17;;;1.10;;
77302;SDS011;66363;49.828;7.856;2023-01-28T14:17:25;2.75;;;1.00;;
77302;SDS011;66363;49.828;7.856;2023-01-28T14:19:59;1.52;;;1.10;;
77302;SDS011;66363;49.828;7.856;2023-01-28T14:22:25;1.23;;;0.90;;
77302;SDS011;66363;49.828;7.856;2023-01-28T14:24:51;1.67;;;0.98;;
77302;SDS011;66363;49.828;7.856;2023-01-28T14:27:19;1.73;;;1.20;;
77302;SDS011;66363;49.828;7.856;2023-01-28T14:29:54;2.08;;;1.30;;
77302;SDS011;66363;49.828;7.856;2023-01-28T14:32:33;1.38;;;1.05;;
77302;SDS011;66363;49.828;7.856;2023-01-28T14:34:59;1.85;;;1.02;;
77302;SDS011;66363;49.828;7.856;2023-01-28T14:37:31;2.78;;;1.10;;
77302;SDS011;66363;49.828;7.856;2023-01-28T14:39:58;1.88;;;1.17;;
77302;SDS011;66363;49.828;7.856;2023-01-28T14:42:26;1.02;;;0.93;;
77302;SDS011;66363;49.828;7.856;2023-01-28T14:44:59;1.50;;;1.05;;
77302;SDS011;66363;49.828;7.856;2023-01-28T14:47:44;1.63;;;1.02;;
77302;SDS011;66363;49.828;7.856;2023-01-28T14:50:34;3.45;;;0.93;;
77302;SDS011;66363;49.828;7.856;2023-01-28T14:53:18;2.97;;;1.02;;
77302;SDS011;66363;49.828;7.856;2023-01-28T14:56:06;2.13;;;1.13;;
77302;SDS011;66363;49.828;7.856;2023-01-28T14:58:42;1.40;;;1.05;;
77302;SDS011;66363;49.828;7.856;2023-01-28T15:01:18;2.28;;;1.25;;
77302;SDS011;66363;49.828;7.856;2023-01-28T15:06:13;1.38;;;1.15;;
77302;SDS011;66363;49.828;7.856;2023-01-28T15:08:40;1.30;;;0.98;;
77302;SDS011;66363;49.828;7.856;2023-01-28T15:11:06;1.20;;;1.00;;
77302;SDS011;66363;49.828;7.856;2023-01-28T15:13:37;3.72;;;1.35;;
77302;SDS011;66363;49.828;7.856;2023-01-28T15:16:06;3.53;;;1.33;;
77302;SDS011;66363;49.828;7.856;2023-01-28T15:18:42;1.63;;;1.17;;
77302;SDS011;66363;49.828;7.856;2023-01-28T15:21:10;1.05;;;0.80;;
77302;SDS011;66363;49.828;7.856;2023-01-28T15:23:36;1.25;;;0.98;;
77302;SDS011;66363;49.828;7.856;2023-01-28T15:26:03;1.08;;;0.98;;
77302;SDS011;66363;49.828;7.856;2023-01-28T15:30:56;2.20;;;1.15;;
77302;SDS011;66363;49.828;7.856;2023-01-28T15:33:22;1.27;;;0.93;;